Pearl Ace — HOOT — position and weather

sailwx.info

Track history (hours):
 
Tides and Currents Weather Stations Pressure Air Temp Water Temp Dewpoint Dewpoint Depression Visibility Wind Speed Wind Dir Waves Ship Positions

Pearl Ace

Last reported at 2018-Feb-19 23:49 UTC. Time now 2018-Feb-20 19:13 UTC.
Position N 37°44' E 024°18'.

Length 188 m; draft 8.1 m.

Type: Other ship. MMSI: 355754000.

Date/timePositionNaut miles runAvg speedWind from/ knotsBaromVisibWave heightAir tempDewpointWater temp
2018-Feb-19 23:49N 37°44' E 024°18'2014.1
2018-Feb-19 22:23N 37°35' E 023°55'615.9
2018-Feb-19 22:00N 37°38' E 023°48'714.8
2018-Feb-19 21:30N 37°42' E 023°41'714.4
2018-Feb-19 21:00N 37°49' E 023°37'713.3
2018-Feb-19 20:30N 37°56' E 023°37'2 3.8
2018-Feb-19 20:00N 37°58' E 023°37'0 0.0
2018-Feb-19 19:30N 37°58' E 023°37'0 0.0
2018-Feb-19 19:00N 37°58' E 023°37'0 0.0
2018-Feb-19 18:30N 37°58' E 023°37'0 0.0
2018-Feb-19 17:57N 37°58' E 023°37'0 0.0
2018-Feb-19 17:30N 37°58' E 023°37'0 0.0
2018-Feb-19 17:00N 37°58' E 023°37'0 0.0
2018-Feb-19 16:30N 37°58' E 023°37'0 0.0
2018-Feb-19 16:00N 37°58' E 023°37'0 0.0
2018-Feb-19 15:30N 37°58' E 023°37'0 0.0
2018-Feb-19 15:00N 37°58' E 023°37'0 0.0
2018-Feb-19 14:30N 37°58' E 023°37'0 0.0
2018-Feb-19 14:00N 37°58' E 023°37'0 0.0
2018-Feb-19 13:30N 37°58' E 023°37'0 0.2
2018-Feb-19 13:00N 37°57' E 023°36'2 4.6
2018-Feb-19 12:30N 37°55' E 023°36'1 2.7
2018-Feb-19 12:00N 37°54' E 023°36'1 2.9
2018-Feb-19 11:30N 37°53' E 023°35'0 0.3
2018-Feb-19 11:00N 37°53' E 023°35'0 0.1
2018-Feb-19 10:30N 37°53' E 023°35'0 0.2
2018-Feb-19 10:00N 37°53' E 023°35'0 0.3
2018-Feb-19 09:30N 37°53' E 023°35'1 2.4
2018-Feb-19 09:00N 37°52' E 023°35'3 6.1
2018-Feb-19 08:30N 37°50' E 023°39'3 6.0
2018-Feb-19 08:00N 37°48' E 023°41'3 6.2
2018-Feb-19 07:30N 37°45' E 023°42'4 8.7
2018-Feb-19 07:00N 37°41' E 023°45'611.7
2018-Feb-19 06:30N 37°35' E 023°44'612.4
2018-Feb-19 06:00N 37°29' E 023°42'913.2
2018-Feb-19 05:20N 37°20' E 023°40'36513.5
2018-Feb-18 02:17N 37°45' E 016°01'516.8
2018-Feb-18 02:00N 37°46' E 015°55'916.4
2018-Feb-18 01:27N 37°49' E 015°44'1015.3
2018-Feb-18 00:47N 37°56' E 015°35'616.2
2018-Feb-18 00:24N 38°02' E 015°34'614.7
2018-Feb-18 00:01N 38°08' E 015°35'611.9
2018-Feb-17 23:29N 38°14' E 015°37'611.5
2018-Feb-17 23:00N 38°19' E 015°40'611.0
2018-Feb-17 22:29N 38°24' E 015°38'511.2
2018-Feb-17 22:00N 38°29' E 015°35'713.9
2018-Feb-17 21:30N 38°35' E 015°31'813.9
2018-Feb-17 20:57N 38°42' E 015°27'815.6
2018-Feb-17 20:28N 38°49' E 015°22'3816.3
2018-Feb-17 18:08N 39°15' E 014°47'31215.5
2018-Feb-16 21:56N 43°02' E 010°02'716.3
2018-Feb-16 21:30N 43°08' E 010°04'816.1
2018-Feb-16 21:01N 43°16' E 010°07'816.1
2018-Feb-16 20:31N 43°24' E 010°09'713.8
2018-Feb-16 20:00N 43°30' E 010°12'5 9.0
2018-Feb-16 19:30N 43°33' E 010°17'2 4.3
2018-Feb-16 19:00N 43°35' E 010°18'0 0.2
2018-Feb-16 18:27N 43°35' E 010°18'0 0.0
2018-Feb-16 18:00N 43°35' E 010°18'0 0.0
2018-Feb-16 17:30N 43°35' E 010°18'0 0.0
2018-Feb-16 17:00N 43°35' E 010°18'0 0.0
2018-Feb-16 16:24N 43°35' E 010°18'0 0.0
2018-Feb-16 16:00N 43°35' E 010°18'0 0.0
2018-Feb-16 15:30N 43°35' E 010°18'0 0.0
2018-Feb-16 15:00N 43°35' E 010°18'0 0.0
2018-Feb-16 14:30N 43°35' E 010°18'0 0.0
2018-Feb-16 14:00N 43°35' E 010°18'0 0.0
2018-Feb-16 13:30N 43°35' E 010°18'0 0.0
2018-Feb-16 12:57N 43°35' E 010°18'0 0.0
2018-Feb-16 12:30N 43°35' E 010°18'0 0.0
2018-Feb-16 12:00N 43°35' E 010°18'0 0.0
2018-Feb-16 11:30N 43°35' E 010°18'0 0.0
2018-Feb-16 11:00N 43°35' E 010°18'0 0.0
2018-Feb-16 10:27N 43°35' E 010°18'0 0.0
2018-Feb-16 10:00N 43°35' E 010°18'0 0.0
2018-Feb-16 09:30N 43°35' E 010°18'0 0.0
2018-Feb-16 09:00N 43°35' E 010°18'0 0.0
2018-Feb-16 08:30N 43°35' E 010°18'0 0.0
2018-Feb-16 08:00N 43°35' E 010°18'0 0.0
2018-Feb-16 07:27N 43°35' E 010°18'0 0.0
2018-Feb-16 06:57N 43°35' E 010°18'0 0.0
2018-Feb-16 06:30N 43°35' E 010°18'0 0.0
2018-Feb-16 06:00N 43°35' E 010°18'0 0.0
2018-Feb-16 05:30N 43°35' E 010°18'0 0.0
2018-Feb-16 04:54N 43°35' E 010°18'0 0.0
2018-Feb-16 04:30N 43°35' E 010°18'0 0.0
2018-Feb-16 04:00N 43°35' E 010°18'0 0.0
2018-Feb-16 03:30N 43°35' E 010°18'0 0.0
2018-Feb-16 03:00N 43°35' E 010°18'0 0.0
2018-Feb-16 02:30N 43°35' E 010°18'0 0.0
2018-Feb-16 02:00N 43°35' E 010°18'0 0.0
2018-Feb-16 01:30N 43°35' E 010°18'0 0.0
2018-Feb-16 01:00N 43°35' E 010°18'0 0.0
2018-Feb-16 00:30N 43°35' E 010°18'0 0.0
2018-Feb-16 00:00N 43°35' E 010°18'0 0.0
2018-Feb-15 23:30N 43°35' E 010°18'0 0.0
2018-Feb-15 23:00N 43°35' E 010°18'0 0.0
2018-Feb-15 22:30N 43°35' E 010°18'0 0.0
2018-Feb-15 22:00N 43°35' E 010°18'0 0.0
2018-Feb-15 21:30N 43°35' E 010°18'0 0.0
2018-Feb-15 21:00N 43°35' E 010°18'0 0.0
2018-Feb-15 20:27N 43°35' E 010°18'0 0.0
2018-Feb-15 20:00N 43°35' E 010°18'0 0.0
2018-Feb-15 19:30N 43°35' E 010°18'0 0.0
2018-Feb-15 19:00N 43°35' E 010°18'0 0.0
2018-Feb-15 18:30N 43°35' E 010°18'0 0.0
2018-Feb-15 18:00N 43°35' E 010°18'0 0.0
2018-Feb-15 17:30N 43°35' E 010°18'0 0.0
2018-Feb-15 17:00N 43°35' E 010°18'0 0.0
2018-Feb-15 16:30N 43°35' E 010°18'0 0.0
2018-Feb-15 16:00N 43°35' E 010°18'0 0.0
2018-Feb-15 15:30N 43°35' E 010°18'0 0.0
2018-Feb-15 14:57N 43°35' E 010°18'0 0.0
2018-Feb-15 14:30N 43°35' E 010°18'0 0.0
2018-Feb-15 14:00N 43°35' E 010°18'0 0.0
2018-Feb-15 13:27N 43°35' E 010°18'0 0.0
2018-Feb-15 12:54N 43°35' E 010°18'0 0.0
2018-Feb-15 12:30N 43°35' E 010°18'0 0.0
2018-Feb-15 12:00N 43°35' E 010°18'0 0.0
2018-Feb-15 11:27N 43°35' E 010°18'0 0.0
2018-Feb-15 11:00N 43°35' E 010°18'0 0.0
2018-Feb-15 10:30N 43°35' E 010°18'0 0.0
2018-Feb-15 10:00N 43°35' E 010°18'0 0.0
2018-Feb-15 09:24N 43°35' E 010°18'0 0.0
2018-Feb-15 09:00N 43°35' E 010°18'0 0.0
2018-Feb-15 08:30N 43°35' E 010°18'0 0.0
2018-Feb-15 08:00N 43°35' E 010°18'0 0.0
2018-Feb-15 07:27N 43°35' E 010°18'0 0.0
2018-Feb-15 07:00N 43°35' E 010°18'0 0.0
2018-Feb-15 06:24N 43°35' E 010°18'0 0.0
2018-Feb-15 06:00N 43°35' E 010°18'0 0.0
2018-Feb-15 05:24N 43°35' E 010°18'0 0.0
2018-Feb-15 05:00N 43°35' E 010°18'0 0.0
2018-Feb-15 04:30N 43°35' E 010°18'0 0.0
2018-Feb-15 04:00N 43°35' E 010°18'0 0.0
2018-Feb-15 03:30N 43°35' E 010°18'0 0.0
2018-Feb-15 03:00N 43°35' E 010°18'0 0.0
2018-Feb-15 02:30N 43°35' E 010°18'0 0.0
2018-Feb-15 02:00N 43°35' E 010°18'0 0.0
2018-Feb-15 01:30N 43°35' E 010°18'0 0.0
2018-Feb-15 01:00N 43°35' E 010°18'0 0.0
2018-Feb-15 00:30N 43°35' E 010°18'0 0.0
2018-Feb-15 00:00N 43°35' E 010°18'0 0.0
2018-Feb-14 23:27N 43°35' E 010°18'0 0.0
2018-Feb-14 23:00N 43°35' E 010°18'0 0.0
2018-Feb-14 22:30N 43°35' E 010°18'0 0.0
2018-Feb-14 21:57N 43°35' E 010°18'0 0.0
2018-Feb-14 21:27N 43°35' E 010°18'0 0.0
2018-Feb-14 21:00N 43°35' E 010°18'0 0.0
2018-Feb-14 20:30N 43°35' E 010°18'0 0.0
2018-Feb-14 20:00N 43°35' E 010°18'0 0.5
2018-Feb-14 19:31N 43°35' E 010°18'3 6.7
2018-Feb-14 19:01N 43°32' E 010°16'4 7.2
2018-Feb-14 18:31N 43°29' E 010°13'5 9.6
2018-Feb-14 18:01N 43°24' E 010°12'1 2.9
2018-Feb-14 17:31N 43°23' E 010°11'1 1.2
2018-Feb-14 17:01N 43°23' E 010°10'1 1.1
2018-Feb-14 16:30N 43°23' E 010°10'0 0.9
2018-Feb-14 16:00N 43°23' E 010°09'0 0.7
2018-Feb-14 15:31N 43°23' E 010°09'0 0.6
2018-Feb-14 15:00N 43°24' E 010°08'0 0.5
2018-Feb-14 14:30N 43°24' E 010°09'1 2.9
2018-Feb-14 14:01N 43°25' E 010°10'510.3
2018-Feb-14 13:31N 43°29' E 010°13'612.2
2018-Feb-14 13:01N 43°24' E 010°08'35916.7
2018-Feb-13 15:31N 41°21' E 002°32'115.9
2018-Feb-13 15:28N 41°21' E 002°31'716.0
2018-Feb-13 15:01N 41°19' E 002°22'815.6
2018-Feb-13 14:30N 41°16' E 002°12'4 8.9
2018-Feb-13 14:00N 41°21' E 002°10'1 2.1
2018-Feb-13 13:30N 41°20' E 002°09'0 0.0
2018-Feb-13 13:00N 41°20' E 002°09'0 0.0
2018-Feb-13 12:30N 41°20' E 002°09'0 0.0
2018-Feb-13 12:00N 41°20' E 002°09'0 0.0
2018-Feb-13 11:29N 41°20' E 002°09'0 0.0
2018-Feb-13 11:00N 41°20' E 002°09'0 0.0
2018-Feb-13 10:30N 41°20' E 002°09'0 0.0
2018-Feb-13 10:00N 41°20' E 002°09'0 0.0
2018-Feb-13 09:29N 41°20' E 002°09'0 0.0
2018-Feb-13 08:59N 41°20' E 002°09'0 0.0
2018-Feb-13 08:29N 41°20' E 002°09'0 0.0
2018-Feb-13 08:00N 41°20' E 002°09'0 0.0
2018-Feb-13 07:30N 41°20' E 002°09'0 0.0
2018-Feb-13 06:59N 41°20' E 002°09'0 0.0
2018-Feb-13 06:29N 41°20' E 002°09'0 0.0
2018-Feb-13 05:59N 41°20' E 002°09'0 0.0
2018-Feb-13 05:29N 41°20' E 002°09'0 0.0
2018-Feb-13 05:00N 41°20' E 002°09'0 0.0
2018-Feb-13 04:29N 41°20' E 002°09'0 0.0
2018-Feb-13 04:00N 41°20' E 002°09'0 0.0
2018-Feb-13 03:30N 41°20' E 002°09'0 0.0
2018-Feb-13 03:00N 41°20' E 002°09'0 0.0
2018-Feb-13 02:30N 41°20' E 002°09'0 0.0
2018-Feb-13 01:59N 41°20' E 002°09'0 0.0
2018-Feb-13 01:29N 41°20' E 002°09'0 0.0
2018-Feb-13 01:00N 41°20' E 002°09'0 0.0
2018-Feb-13 00:30N 41°20' E 002°09'0 0.0
2018-Feb-13 00:00N 41°20' E 002°09'0 0.0
2018-Feb-12 23:29N 41°20' E 002°09'0 0.0
2018-Feb-12 22:59N 41°20' E 002°09'0 0.0
2018-Feb-12 22:30N 41°20' E 002°09'0 0.0
2018-Feb-12 22:00N 41°20' E 002°09'0 0.0
2018-Feb-12 21:29N 41°20' E 002°09'0 0.0
2018-Feb-12 21:00N 41°20' E 002°09'0 0.0
2018-Feb-12 20:29N 41°20' E 002°09'0 0.0
2018-Feb-12 20:00N 41°20' E 002°09'0 0.0
2018-Feb-12 19:30N 41°20' E 002°09'0 0.0
2018-Feb-12 19:00N 41°20' E 002°09'0 0.0
2018-Feb-12 18:29N 41°20' E 002°09'0 0.0
2018-Feb-12 17:59N 41°20' E 002°09'0 0.0
2018-Feb-12 17:30N 41°20' E 002°09'0 0.0
2018-Feb-12 17:00N 41°20' E 002°09'0 0.0
2018-Feb-12 16:30N 41°20' E 002°09'0 0.0
2018-Feb-12 16:00N 41°20' E 002°09'0 0.0
2018-Feb-12 15:17N 41°20' E 002°09'0 0.0
2018-Feb-12 14:59N 41°20' E 002°09'0 0.0
2018-Feb-12 14:29N 41°20' E 002°09'0 0.0
2018-Feb-12 14:00N 41°20' E 002°09'0 0.0
2018-Feb-12 13:29N 41°20' E 002°09'0 0.0
2018-Feb-12 13:00N 41°20' E 002°09'0 0.0
2018-Feb-12 12:29N 41°20' E 002°09'0 0.0
2018-Feb-12 12:00N 41°20' E 002°09'0 0.0
2018-Feb-12 11:29N 41°20' E 002°09'1 2.3
2018-Feb-12 11:01N 41°21' E 002°10'4 7.9
2018-Feb-12 10:30N 41°17' E 002°11'4 7.7
2018-Feb-12 10:00N 41°13' E 002°11'714.9
2018-Feb-12 09:31N 41°06' E 002°06'917.1
2018-Feb-12 09:00N 40°59' E 002°01'22317.4
2018-Feb-11 20:11N 37°45' W 000°21'318.3
2018-Feb-11 20:00N 37°42' W 000°23'918.3
2018-Feb-11 19:31N 37°34' W 000°30'917.8
2018-Feb-11 19:00N 37°28' W 000°37'917.6
2018-Feb-11 18:31N 37°22' W 000°46'1017.5
2018-Feb-11 17:57N 37°16' W 000°55'817.7
2018-Feb-11 17:31N 37°11' W 001°02'20916.6
2018-Feb-11 04:55N 36°00' W 005°07'819.3
2018-Feb-11 04:30N 35°59' W 005°17'918.2
2018-Feb-11 04:01N 35°56' W 005°28'  
Track history (hours):
 
Tides and Currents Weather Stations Pressure Air Temp Water Temp Dewpoint Dewpoint Depression Visibility Wind Speed Wind Dir Waves Ship Positions

Pearl Ace

Last reported at 2018-Feb-19 23:49 UTC. Time now 2018-Feb-20 19:13 UTC.
Position N 37°44' E 024°18'.

Length 188 m; draft 8.1 m.

Type: Other ship. MMSI: 355754000.

Date/timePositionNaut miles runAvg speedWind from/ knotsBaromVisibWave heightAir tempDewpointWater temp
2018-Feb-19 23:49N 37°44' E 024°18'2014.1
2018-Feb-19 22:23N 37°35' E 023°55'615.9
2018-Feb-19 22:00N 37°38' E 023°48'714.8
2018-Feb-19 21:30N 37°42' E 023°41'714.4
2018-Feb-19 21:00N 37°49' E 023°37'713.3
2018-Feb-19 20:30N 37°56' E 023°37'2 3.8
2018-Feb-19 20:00N 37°58' E 023°37'0 0.0
2018-Feb-19 19:30N 37°58' E 023°37'0 0.0
2018-Feb-19 19:00N 37°58' E 023°37'0 0.0
2018-Feb-19 18:30N 37°58' E 023°37'0 0.0
2018-Feb-19 17:57N 37°58' E 023°37'0 0.0
2018-Feb-19 17:30N 37°58' E 023°37'0 0.0
2018-Feb-19 17:00N 37°58' E 023°37'0 0.0
2018-Feb-19 16:30N 37°58' E 023°37'0 0.0
2018-Feb-19 16:00N 37°58' E 023°37'0 0.0
2018-Feb-19 15:30N 37°58' E 023°37'0 0.0
2018-Feb-19 15:00N 37°58' E 023°37'0 0.0
2018-Feb-19 14:30N 37°58' E 023°37'0 0.0
2018-Feb-19 14:00N 37°58' E 023°37'0 0.0
2018-Feb-19 13:30N 37°58' E 023°37'0 0.2
2018-Feb-19 13:00N 37°57' E 023°36'2 4.6
2018-Feb-19 12:30N 37°55' E 023°36'1 2.7
2018-Feb-19 12:00N 37°54' E 023°36'1 2.9
2018-Feb-19 11:30N 37°53' E 023°35'0 0.3
2018-Feb-19 11:00N 37°53' E 023°35'0 0.1
2018-Feb-19 10:30N 37°53' E 023°35'0 0.2
2018-Feb-19 10:00N 37°53' E 023°35'0 0.3
2018-Feb-19 09:30N 37°53' E 023°35'1 2.4
2018-Feb-19 09:00N 37°52' E 023°35'3 6.1
2018-Feb-19 08:30N 37°50' E 023°39'3 6.0
2018-Feb-19 08:00N 37°48' E 023°41'3 6.2
2018-Feb-19 07:30N 37°45' E 023°42'4 8.7
2018-Feb-19 07:00N 37°41' E 023°45'611.7
2018-Feb-19 06:30N 37°35' E 023°44'612.4
2018-Feb-19 06:00N 37°29' E 023°42'913.2
2018-Feb-19 05:20N 37°20' E 023°40'36513.5
2018-Feb-18 02:17N 37°45' E 016°01'516.8
2018-Feb-18 02:00N 37°46' E 015°55'916.4
2018-Feb-18 01:27N 37°49' E 015°44'1015.3
2018-Feb-18 00:47N 37°56' E 015°35'616.2
2018-Feb-18 00:24N 38°02' E 015°34'614.7
2018-Feb-18 00:01N 38°08' E 015°35'611.9
2018-Feb-17 23:29N 38°14' E 015°37'611.5
2018-Feb-17 23:00N 38°19' E 015°40'611.0
2018-Feb-17 22:29N 38°24' E 015°38'511.2
2018-Feb-17 22:00N 38°29' E 015°35'713.9
2018-Feb-17 21:30N 38°35' E 015°31'813.9
2018-Feb-17 20:57N 38°42' E 015°27'815.6
2018-Feb-17 20:28N 38°49' E 015°22'3816.3
2018-Feb-17 18:08N 39°15' E 014°47'31215.5
2018-Feb-16 21:56N 43°02' E 010°02'716.3
2018-Feb-16 21:30N 43°08' E 010°04'816.1
2018-Feb-16 21:01N 43°16' E 010°07'816.1
2018-Feb-16 20:31N 43°24' E 010°09'713.8
2018-Feb-16 20:00N 43°30' E 010°12'5 9.0
2018-Feb-16 19:30N 43°33' E 010°17'2 4.3
2018-Feb-16 19:00N 43°35' E 010°18'0 0.2
2018-Feb-16 18:27N 43°35' E 010°18'0 0.0
2018-Feb-16 18:00N 43°35' E 010°18'0 0.0
2018-Feb-16 17:30N 43°35' E 010°18'0 0.0
2018-Feb-16 17:00N 43°35' E 010°18'0 0.0
2018-Feb-16 16:24N 43°35' E 010°18'0 0.0
2018-Feb-16 16:00N 43°35' E 010°18'0 0.0
2018-Feb-16 15:30N 43°35' E 010°18'0 0.0
2018-Feb-16 15:00N 43°35' E 010°18'0 0.0
2018-Feb-16 14:30N 43°35' E 010°18'0 0.0
2018-Feb-16 14:00N 43°35' E 010°18'0 0.0
2018-Feb-16 13:30N 43°35' E 010°18'0 0.0
2018-Feb-16 12:57N 43°35' E 010°18'0 0.0
2018-Feb-16 12:30N 43°35' E 010°18'0 0.0
2018-Feb-16 12:00N 43°35' E 010°18'0 0.0
2018-Feb-16 11:30N 43°35' E 010°18'0 0.0
2018-Feb-16 11:00N 43°35' E 010°18'0 0.0
2018-Feb-16 10:27N 43°35' E 010°18'0 0.0
2018-Feb-16 10:00N 43°35' E 010°18'0 0.0
2018-Feb-16 09:30N 43°35' E 010°18'0 0.0
2018-Feb-16 09:00N 43°35' E 010°18'0 0.0
2018-Feb-16 08:30N 43°35' E 010°18'0 0.0
2018-Feb-16 08:00N 43°35' E 010°18'0 0.0
2018-Feb-16 07:27N 43°35' E 010°18'0 0.0
2018-Feb-16 06:57N 43°35' E 010°18'0 0.0
2018-Feb-16 06:30N 43°35' E 010°18'0 0.0
2018-Feb-16 06:00N 43°35' E 010°18'0 0.0
2018-Feb-16 05:30N 43°35' E 010°18'0 0.0
2018-Feb-16 04:54N 43°35' E 010°18'0 0.0
2018-Feb-16 04:30N 43°35' E 010°18'0 0.0
2018-Feb-16 04:00N 43°35' E 010°18'0 0.0
2018-Feb-16 03:30N 43°35' E 010°18'0 0.0
2018-Feb-16 03:00N 43°35' E 010°18'0 0.0
2018-Feb-16 02:30N 43°35' E 010°18'0 0.0
2018-Feb-16 02:00N 43°35' E 010°18'0 0.0
2018-Feb-16 01:30N 43°35' E 010°18'0 0.0
2018-Feb-16 01:00N 43°35' E 010°18'0 0.0
2018-Feb-16 00:30N 43°35' E 010°18'0 0.0
2018-Feb-16 00:00N 43°35' E 010°18'0 0.0
2018-Feb-15 23:30N 43°35' E 010°18'0 0.0
2018-Feb-15 23:00N 43°35' E 010°18'0 0.0
2018-Feb-15 22:30N 43°35' E 010°18'0 0.0
2018-Feb-15 22:00N 43°35' E 010°18'0 0.0
2018-Feb-15 21:30N 43°35' E 010°18'0 0.0
2018-Feb-15 21:00N 43°35' E 010°18'0 0.0
2018-Feb-15 20:27N 43°35' E 010°18'0 0.0
2018-Feb-15 20:00N 43°35' E 010°18'0 0.0
2018-Feb-15 19:30N 43°35' E 010°18'0 0.0
2018-Feb-15 19:00N 43°35' E 010°18'0 0.0
2018-Feb-15 18:30N 43°35' E 010°18'0 0.0
2018-Feb-15 18:00N 43°35' E 010°18'0 0.0
2018-Feb-15 17:30N 43°35' E 010°18'0 0.0
2018-Feb-15 17:00N 43°35' E 010°18'0 0.0
2018-Feb-15 16:30N 43°35' E 010°18'0 0.0
2018-Feb-15 16:00N 43°35' E 010°18'0 0.0
2018-Feb-15 15:30N 43°35' E 010°18'0 0.0
2018-Feb-15 14:57N 43°35' E 010°18'0 0.0
2018-Feb-15 14:30N 43°35' E 010°18'0 0.0
2018-Feb-15 14:00N 43°35' E 010°18'0 0.0
2018-Feb-15 13:27N 43°35' E 010°18'0 0.0
2018-Feb-15 12:54N 43°35' E 010°18'0 0.0
2018-Feb-15 12:30N 43°35' E 010°18'0 0.0
2018-Feb-15 12:00N 43°35' E 010°18'0 0.0
2018-Feb-15 11:27N 43°35' E 010°18'0 0.0
2018-Feb-15 11:00N 43°35' E 010°18'0 0.0
2018-Feb-15 10:30N 43°35' E 010°18'0 0.0
2018-Feb-15 10:00N 43°35' E 010°18'0 0.0
2018-Feb-15 09:24N 43°35' E 010°18'0 0.0
2018-Feb-15 09:00N 43°35' E 010°18'0 0.0
2018-Feb-15 08:30N 43°35' E 010°18'0 0.0
2018-Feb-15 08:00N 43°35' E 010°18'0 0.0
2018-Feb-15 07:27N 43°35' E 010°18'0 0.0
2018-Feb-15 07:00N 43°35' E 010°18'0 0.0
2018-Feb-15 06:24N 43°35' E 010°18'0 0.0
2018-Feb-15 06:00N 43°35' E 010°18'0 0.0
2018-Feb-15 05:24N 43°35' E 010°18'0 0.0
2018-Feb-15 05:00N 43°35' E 010°18'0 0.0
2018-Feb-15 04:30N 43°35' E 010°18'0 0.0
2018-Feb-15 04:00N 43°35' E 010°18'0 0.0
2018-Feb-15 03:30N 43°35' E 010°18'0 0.0
2018-Feb-15 03:00N 43°35' E 010°18'0 0.0
2018-Feb-15 02:30N 43°35' E 010°18'0 0.0
2018-Feb-15 02:00N 43°35' E 010°18'0 0.0
2018-Feb-15 01:30N 43°35' E 010°18'0 0.0
2018-Feb-15 01:00N 43°35' E 010°18'0 0.0
2018-Feb-15 00:30N 43°35' E 010°18'0 0.0
2018-Feb-15 00:00N 43°35' E 010°18'0 0.0
2018-Feb-14 23:27N 43°35' E 010°18'0 0.0
2018-Feb-14 23:00N 43°35' E 010°18'0 0.0
2018-Feb-14 22:30N 43°35' E 010°18'0 0.0
2018-Feb-14 21:57N 43°35' E 010°18'0 0.0
2018-Feb-14 21:27N 43°35' E 010°18'0 0.0
2018-Feb-14 21:00N 43°35' E 010°18'0 0.0
2018-Feb-14 20:30N 43°35' E 010°18'0 0.0
2018-Feb-14 20:00N 43°35' E 010°18'0 0.5
2018-Feb-14 19:31N 43°35' E 010°18'3 6.7
2018-Feb-14 19:01N 43°32' E 010°16'4 7.2
2018-Feb-14 18:31N 43°29' E 010°13'5 9.6
2018-Feb-14 18:01N 43°24' E 010°12'1 2.9
2018-Feb-14 17:31N 43°23' E 010°11'1 1.2
2018-Feb-14 17:01N 43°23' E 010°10'1 1.1
2018-Feb-14 16:30N 43°23' E 010°10'0 0.9
2018-Feb-14 16:00N 43°23' E 010°09'0 0.7
2018-Feb-14 15:31N 43°23' E 010°09'0 0.6
2018-Feb-14 15:00N 43°24' E 010°08'0 0.5
2018-Feb-14 14:30N 43°24' E 010°09'1 2.9
2018-Feb-14 14:01N 43°25' E 010°10'510.3
2018-Feb-14 13:31N 43°29' E 010°13'612.2
2018-Feb-14 13:01N 43°24' E 010°08'35916.7
2018-Feb-13 15:31N 41°21' E 002°32'115.9
2018-Feb-13 15:28N 41°21' E 002°31'716.0
2018-Feb-13 15:01N 41°19' E 002°22'815.6
2018-Feb-13 14:30N 41°16' E 002°12'4 8.9
2018-Feb-13 14:00N 41°21' E 002°10'1 2.1
2018-Feb-13 13:30N 41°20' E 002°09'0 0.0
2018-Feb-13 13:00N 41°20' E 002°09'0 0.0
2018-Feb-13 12:30N 41°20' E 002°09'0 0.0
2018-Feb-13 12:00N 41°20' E 002°09'0 0.0
2018-Feb-13 11:29N 41°20' E 002°09'0 0.0
2018-Feb-13 11:00N 41°20' E 002°09'0 0.0
2018-Feb-13 10:30N 41°20' E 002°09'0 0.0
2018-Feb-13 10:00N 41°20' E 002°09'0 0.0
2018-Feb-13 09:29N 41°20' E 002°09'0 0.0
2018-Feb-13 08:59N 41°20' E 002°09'0 0.0
2018-Feb-13 08:29N 41°20' E 002°09'0 0.0
2018-Feb-13 08:00N 41°20' E 002°09'0 0.0
2018-Feb-13 07:30N 41°20' E 002°09'0 0.0
2018-Feb-13 06:59N 41°20' E 002°09'0 0.0
2018-Feb-13 06:29N 41°20' E 002°09'0 0.0
2018-Feb-13 05:59N 41°20' E 002°09'0 0.0
2018-Feb-13 05:29N 41°20' E 002°09'0 0.0
2018-Feb-13 05:00N 41°20' E 002°09'0 0.0
2018-Feb-13 04:29N 41°20' E 002°09'0 0.0
2018-Feb-13 04:00N 41°20' E 002°09'0 0.0
2018-Feb-13 03:30N 41°20' E 002°09'0 0.0
2018-Feb-13 03:00N 41°20' E 002°09'0 0.0
2018-Feb-13 02:30N 41°20' E 002°09'0 0.0
2018-Feb-13 01:59N 41°20' E 002°09'0 0.0
2018-Feb-13 01:29N 41°20' E 002°09'0 0.0
2018-Feb-13 01:00N 41°20' E 002°09'0 0.0
2018-Feb-13 00:30N 41°20' E 002°09'0 0.0
2018-Feb-13 00:00N 41°20' E 002°09'0 0.0
2018-Feb-12 23:29N 41°20' E 002°09'0 0.0
2018-Feb-12 22:59N 41°20' E 002°09'0 0.0
2018-Feb-12 22:30N 41°20' E 002°09'0 0.0
2018-Feb-12 22:00N 41°20' E 002°09'0 0.0
2018-Feb-12 21:29N 41°20' E 002°09'0 0.0
2018-Feb-12 21:00N 41°20' E 002°09'0 0.0
2018-Feb-12 20:29N 41°20' E 002°09'0 0.0
2018-Feb-12 20:00N 41°20' E 002°09'0 0.0
2018-Feb-12 19:30N 41°20' E 002°09'0 0.0
2018-Feb-12 19:00N 41°20' E 002°09'0 0.0
2018-Feb-12 18:29N 41°20' E 002°09'0 0.0
2018-Feb-12 17:59N 41°20' E 002°09'0 0.0
2018-Feb-12 17:30N 41°20' E 002°09'0 0.0
2018-Feb-12 17:00N 41°20' E 002°09'0 0.0
2018-Feb-12 16:30N 41°20' E 002°09'0 0.0
2018-Feb-12 16:00N 41°20' E 002°09'0 0.0
2018-Feb-12 15:17N 41°20' E 002°09'0 0.0
2018-Feb-12 14:59N 41°20' E 002°09'0 0.0
2018-Feb-12 14:29N 41°20' E 002°09'0 0.0
2018-Feb-12 14:00N 41°20' E 002°09'0 0.0
2018-Feb-12 13:29N 41°20' E 002°09'0 0.0
2018-Feb-12 13:00N 41°20' E 002°09'0 0.0
2018-Feb-12 12:29N 41°20' E 002°09'0 0.0
2018-Feb-12 12:00N 41°20' E 002°09'0 0.0
2018-Feb-12 11:29N 41°20' E 002°09'1 2.3
2018-Feb-12 11:01N 41°21' E 002°10'4 7.9
2018-Feb-12 10:30N 41°17' E 002°11'4 7.7
2018-Feb-12 10:00N 41°13' E 002°11'714.9
2018-Feb-12 09:31N 41°06' E 002°06'917.1
2018-Feb-12 09:00N 40°59' E 002°01'22317.4
2018-Feb-11 20:11N 37°45' W 000°21'318.3
2018-Feb-11 20:00N 37°42' W 000°23'918.3
2018-Feb-11 19:31N 37°34' W 000°30'917.8
2018-Feb-11 19:00N 37°28' W 000°37'917.6
2018-Feb-11 18:31N 37°22' W 000°46'1017.5
2018-Feb-11 17:57N 37°16' W 000°55'817.7
2018-Feb-11 17:31N 37°11' W 001°02'20916.6
2018-Feb-11 04:55N 36°00' W 005°07'819.3
2018-Feb-11 04:30N 35°59' W 005°17'918.2
2018-Feb-11 04:01N 35°56' W 005°28'  

Dump ship's entire track history